CheckWX is a tool to help pilots better visualize weather data.  It is not intended as a substitute for an official pre-flight weather briefing.

18:43:51 UTC

EHMA METAR
Awg-1 Sea
Awg-1 Sea, The Netherlands
Current

19 mins ago

EHMA 171825Z AUTO 18022KT 9999 NCD 11/03 Q1017 W///H///
Observed
Feb-17 @ 18:25 UTC
Wind
  • 180° at 22 KTS
Visibility
10,000+ meters
Flight Rules
VFR
Cloud Levels
  • Clear skies
Temperature
11°C / 52°F
Dewpoint
C / 37°F
Humidity
58%
Altimeter
30.03" Hg
Pressure
1016.92 hPa
Previous

49 mins ago

EHMA 171755Z AUTO 18021KT 9999 NCD 11/03 Q1016 W///H///
Observed
Feb-17 @ 17:55 UTC
Wind
  • 180° at 21 KTS
Visibility
10,000+ meters
Flight Rules
VFR
Cloud Levels
  • Clear skies
Temperature
11°C / 52°F
Dewpoint
C / 37°F
Humidity
58%
Altimeter
30" Hg
Pressure
1015.92 hPa
Previous

1 hour ago

EHMA 171725Z AUTO 17019KT 9999 NCD 12/04 Q1016 W///H///
Observed
Feb-17 @ 17:25 UTC
Wind
  • 170° at 19 KTS
Visibility
10,000+ meters
Flight Rules
VFR
Cloud Levels
  • Clear skies
Temperature
12°C / 54°F
Dewpoint
C / 39°F
Humidity
58%
Altimeter
30" Hg
Pressure
1015.92 hPa